Springfield, Ohio
Current Conditions -  °F | °C
As of 10:56 AM on Thursday 30 Oct 2014 (Local Time) from KSGH Reporting Station
Broken Clouds Broken Clouds  
Wind Chill: 49°   Ceiling: 3400
Heat Index: 49°   Visibility: 10mi
Dew Point: 34°   Wind: 3mph
Humidity: 56%   Direction: 190°S
Pressure: 30.17"   Gusts: NA
Location:  39.93°N, 83.81°W
Report Text: KSGH 301456Z AUTO 19003KT 10SM BKN034 BKN041 09/01 A3017 RMK AO2 50005 T00940011 SLP220
Loading
Personal Weather Stations






























Interactive Weather Map
Tropical Storm Tracking
New forecast layout! Learn more

10-Day Weather Forecast

Advertisements
Track Severe Weather on mobile